EGPU

Details ICAO EGPU (TRE)
Name Tiree
Region United Kingdom
Timezone Europe/London (UTC+1.0)
Plans Departing 11
Arriving 16
Stats Elevation 38 ft / 12 m (AMSL)
Location 56.501296° -6.872731°
Runways 3
Magnetic Variation 3.818° W
Sunrise 2018-05-24 03:58:03 UTC / 2018-05-24 04:58:03 Local
Sunset 2018-05-24 20:53:28 UTC / 2018-05-24 21:53:28 Local
Advertisement - Login to hide

Runways

ID Width Length Bearing (true) Bearing (mag) Surface Threshold Offset Overrun Length
05 98 ft / 30 m 4,848 ft / 1,478 m 47.04° 50.86° Asphalt 0 ft / 0 m 653 ft / 199 m
11 62 ft / 19 m 2,654 ft / 809 m 107.10° 110.92° Asphalt 0 ft / 0 m 0 ft / 0 m
17 59 ft / 18 m 2,595 ft / 791 m 167.16° 170.98° Concrete 0 ft / 0 m 0 ft / 0 m
23 98 ft / 30 m 4,848 ft / 1,478 m 227.05° 230.87° Asphalt 397 ft / 121 m 0 ft / 0 m
29 62 ft / 19 m 2,654 ft / 809 m 287.11° 290.93° Asphalt 0 ft / 0 m 0 ft / 0 m
35 59 ft / 18 m 2,595 ft / 791 m 347.16° 350.98° Concrete 0 ft / 0 m 0 ft / 0 m

Map

Weather


0- 5 10 15 20 25 30 35+ Temperature / ° C

Clouds and Precipitation
Forecast for 2018-05-24 12:00 UTC. Updated an hour ago

Ground ~20,000 ft ~40,000 ft Winds

METAR

EGPU 241150Z 15011KT CAVOK 15/10 Q1024

TAF

Not found

Frequencies

Tower 122.70 MHz Tiree Information
Warning: Do not use this data for real-world aviation or navigation. No guarantee of current accuracy is given.